Observation data for Muleshoe on 07/11/2018      Previous  Date       Current Mesonet Observations  Soil Data  Daily Summary Page  Observations in Plain Language
KMUS 110505Z 17006KT 23/15 A3017 RMK A01 T02260152  RH  066%=      5-min Rain = 0
KMUS 110510Z 17006KT 22/15 A3017 RMK A01 T02240152  RH  067%=      5-min Rain = 0
KMUS 110515Z 18005KT 22/15 A3017 RMK A01 T02230153  RH  068%=      5-min Rain = 0
KMUS 110520Z 17004KT 22/15 A3017 RMK A01 T02210153  RH  068%=      5-min Rain = 0
KMUS 110525Z 18004KT 22/15 A3017 RMK A01 T02180153  RH  069%=      5-min Rain = 0
KMUS 110530Z 17004KT 22/15 A3017 RMK A01 T02160153  RH  070%=      5-min Rain = 0
KMUS 110535Z 18005KT 21/15 A3017 RMK A01 T02130153  RH  072%=      5-min Rain = 0
KMUS 110540Z 18005KT 21/15 A3018 RMK A01 T02110154  RH  073%=      5-min Rain = 0
KMUS 110545Z 18005KT 21/15 A3018 RMK A01 T02100154  RH  073%=      5-min Rain = 0
KMUS 110550Z 18005KT 21/15 A3018 RMK A01 T02100154  RH  074%=      5-min Rain = 0
KMUS 110555Z 17005KT 21/15 A3018 RMK A01 T02100154  RH  074%=      5-min Rain = 0
KMUS 110600Z 18006KT 21/16 A3018 RMK A01 T02090155  RH  074%=      5-min Rain = 0
KMUS 110605Z 18005KT 21/16 A3018 RMK A01 T02100155  RH  074%=      5-min Rain = 0
KMUS 110610Z 18005KT 21/16 A3018 RMK A01 T02110155  RH  074%=      5-min Rain = 0
KMUS 110615Z 17005KT 21/16 A3018 RMK A01 T02100155  RH  074%=      5-min Rain = 0
KMUS 110620Z 17005KT 21/16 A3018 RMK A01 T02090155  RH  075%=      5-min Rain = 0
KMUS 110625Z 18005KT 21/16 A3018 RMK A01 T02070156  RH  076%=      5-min Rain = 0
KMUS 110630Z 18004KT 21/16 A3018 RMK A01 T02060156  RH  076%=      5-min Rain = 0
KMUS 110635Z 19004KT 21/16 A3018 RMK A01 T02050156  RH  077%=      5-min Rain = 0
KMUS 110640Z 19004KT 21/16 A3018 RMK A01 T02050156  RH  077%=      5-min Rain = 0
KMUS 110645Z 19005KT 20/16 A3018 RMK A01 T02040156  RH  078%=      5-min Rain = 0
KMUS 110650Z 19005KT 20/16 A3018 RMK A01 T02020156  RH  078%=      5-min Rain = 0
KMUS 110655Z 19006KT 20/16 A3017 RMK A01 T02010157  RH  079%=      5-min Rain = 0
KMUS 110700Z 19006KT 20/16 A3017 RMK A01 T02010158  RH  080%=      5-min Rain = 0
KMUS 110705Z 18006KT 20/16 A3017 RMK A01 T02010158  RH  080%=      5-min Rain = 0
KMUS 110710Z 18006KT 20/16 A3017 RMK A01 T02010157  RH  080%=      5-min Rain = 0
KMUS 110715Z 18006KT 20/16 A3017 RMK A01 T02010157  RH  080%=      5-min Rain = 0
KMUS 110720Z 18005KT 20/16 A3017 RMK A01 T02000157  RH  080%=      5-min Rain = 0
KMUS 110725Z 18005KT 20/16 A3018 RMK A01 T01990157  RH  080%=      5-min Rain = 0
KMUS 110730Z 18005KT 20/16 A3017 RMK A01 T01980157  RH  081%=      5-min Rain = 0
KMUS 110735Z 18004KT 20/16 A3017 RMK A01 T01970157  RH  081%=      5-min Rain = 0
KMUS 110740Z 19005KT 20/16 A3017 RMK A01 T01960157  RH  082%=      5-min Rain = 0
KMUS 110745Z 19005KT 20/16 A3017 RMK A01 T01950157  RH  082%=      5-min Rain = 0
KMUS 110750Z 19005KT 19/16 A3017 RMK A01 T01940157  RH  083%=      5-min Rain = 0
KMUS 110755Z 18005KT 19/16 A3017 RMK A01 T01930157  RH  083%=      5-min Rain = 0
KMUS 110800Z 18006KT 19/16 A3017 RMK A01 T01920157  RH  084%=      5-min Rain = 0
KMUS 110805Z 18005KT 19/16 A3017 RMK A01 T01910157  RH  084%=      5-min Rain = 0
KMUS 110810Z 18006KT 19/16 A3016 RMK A01 T01900157  RH  085%=      5-min Rain = 0
KMUS 110815Z 19006KT 19/16 A3016 RMK A01 T01900157  RH  085%=      5-min Rain = 0
KMUS 110820Z 19005KT 19/16 A3016 RMK A01 T01900157  RH  085%=      5-min Rain = 0
KMUS 110825Z 19004KT 19/16 A3016 RMK A01 T01900157  RH  085%=      5-min Rain = 0
KMUS 110830Z 18004KT 19/16 A3016 RMK A01 T01890157  RH  085%=      5-min Rain = 0
KMUS 110835Z 17004KT 19/16 A3016 RMK A01 T01890156  RH  085%=      5-min Rain = 0
KMUS 110840Z 17004KT 19/16 A3016 RMK A01 T01880156  RH  086%=      5-min Rain = 0
KMUS 110845Z 18003KT 19/16 A3017 RMK A01 T01860156  RH  086%=      5-min Rain = 0
KMUS 110850Z 17003KT 19/16 A3017 RMK A01 T01850156  RH  087%=      5-min Rain = 0
KMUS 110855Z 18003KT 18/16 A3017 RMK A01 T01840156  RH  087%=      5-min Rain = 0
KMUS 110900Z 18003KT 18/16 A3017 RMK A01 T01840156  RH  088%=      5-min Rain = 0
KMUS 110905Z 17003KT 18/16 A3017 RMK A01 T01830156  RH  088%=      5-min Rain = 0
KMUS 110910Z 17003KT 18/16 A3017 RMK A01 T01820155  RH  088%=      5-min Rain = 0
KMUS 110915Z 17004KT 18/16 A3016 RMK A01 T01810155  RH  089%=      5-min Rain = 0
KMUS 110920Z 17004KT 18/15 A3016 RMK A01 T01800154  RH  089%=      5-min Rain = 0
KMUS 110925Z 17003KT 18/15 A3016 RMK A01 T01790154  RH  090%=      5-min Rain = 0
KMUS 110930Z 17003KT 18/15 A3016 RMK A01 T01780154  RH  090%=      5-min Rain = 0
KMUS 110935Z 18003KT 18/16 A3015 RMK A01 T01780155  RH  090%=      5-min Rain = 0
KMUS 110940Z 21001KT 18/15 A3015 RMK A01 T01780154  RH  090%=      5-min Rain = 0
KMUS 110945Z 24001KT 18/15 A3015 RMK A01 T01780154  RH  090%=      5-min Rain = 0
KMUS 110950Z 28001KT 18/15 A3015 RMK A01 T01770154  RH  090%=      5-min Rain = 0
KMUS 110955Z 32002KT 18/15 A3016 RMK A01 T01760153  RH  091%=      5-min Rain = 0
KMUS 111000Z 30002KT 17/15 A3016 RMK A01 T01740152  RH  091%=      5-min Rain = 0
KMUS 111005Z 28002KT 17/15 A3016 RMK A01 T01730152  RH  092%=      5-min Rain = 0
KMUS 111010Z 27001KT 17/16 A3016 RMK A01 T01740155  RH  093%=      5-min Rain = 0
KMUS 111015Z 29002KT 18/16 A3016 RMK A01 T01770156  RH  092%=      5-min Rain = 0
KMUS 111020Z 27002KT 18/16 A3016 RMK A01 T01760155  RH  091%=      5-min Rain = 0
KMUS 111025Z 24001KT 18/16 A3016 RMK A01 T01760155  RH  091%=      5-min Rain = 0
KMUS 111030Z 20001KT 18/15 A3016 RMK A01 T01760154  RH  091%=      5-min Rain = 0
KMUS 111035Z 14002KT 17/15 A3016 RMK A01 T01740152  RH  091%=      5-min Rain = 0
KMUS 111040Z 09003KT 17/15 A3016 RMK A01 T01720152  RH  092%=      5-min Rain = 0
KMUS 111045Z 11002KT 17/15 A3016 RMK A01 T01720153  RH  093%=      5-min Rain = 0
KMUS 111050Z 09004KT 17/15 A3016 RMK A01 T01720153  RH  093%=      5-min Rain = 0
KMUS 111055Z 08005KT 17/15 A3016 RMK A01 T01710153  RH  093%=      5-min Rain = 0
KMUS 111100Z 09004KT 17/15 A3016 RMK A01 T01710152  RH  093%=      5-min Rain = 0
KMUS 111105Z 10004KT 17/15 A3016 RMK A01 T01690151  RH  093%=      5-min Rain = 0
KMUS 111110Z 10003KT 17/15 A3016 RMK A01 T01690151  RH  094%=      5-min Rain = 0
KMUS 111115Z 11004KT 17/15 A3016 RMK A01 T01680151  RH  094%=      5-min Rain = 0
KMUS 111120Z 13004KT 17/15 A3016 RMK A01 T01680151  RH  094%=      5-min Rain = 0
KMUS 111125Z 13004KT 17/15 A3016 RMK A01 T01670150  RH  094%=      5-min Rain = 0
KMUS 111130Z 14004KT 17/15 A3016 RMK A01 T01680152  RH  094%=      5-min Rain = 0
KMUS 111135Z 14003KT 17/15 A3016 RMK A01 T01690153  RH  094%=      5-min Rain = 0
KMUS 111140Z 14003KT 17/15 A3016 RMK A01 T01690152  RH  094%=      5-min Rain = 0
KMUS 111145Z 14003KT 17/15 A3016 RMK A01 T01690152  RH  094%=      5-min Rain = 0
KMUS 111150Z 14003KT 17/15 A3016 RMK A01 T01680152  RH  094%=      5-min Rain = 0
KMUS 111155Z 14003KT 17/15 A3016 RMK A01 T01680152  RH  094%=      5-min Rain = 0
KMUS 111200Z 13002KT 17/15 A3016 RMK A01 T01680152  RH  095%=      5-min Rain = 0
KMUS 111205Z 08002KT 17/15 A3017 RMK A01 T01680152  RH  095%=      5-min Rain = 0
KMUS 111210Z 06003KT 17/15 A3017 RMK A01 T01690153  RH  095%=      5-min Rain = 0
KMUS 111215Z 07003KT 17/15 A3017 RMK A01 T01700154  RH  095%=      5-min Rain = 0
KMUS 111220Z 09002KT 17/16 A3017 RMK A01 T01720157  RH  095%=      5-min Rain = 0
KMUS 111225Z 11002KT 18/16 A3017 RMK A01 T01760160  RH  095%=      5-min Rain = 0
KMUS 111230Z 12003KT 18/16 A3017 RMK A01 T01800162  RH  094%=      5-min Rain = 0
KMUS 111235Z 12003KT 18/16 A3017 RMK A01 T01810162  RH  093%=      5-min Rain = 0
KMUS 111240Z 14002KT 18/16 A3017 RMK A01 T01830162  RH  092%=      5-min Rain = 0
KMUS 111245Z 15002KT 18/16 A3017 RMK A01 T01840163  RH  092%=      5-min Rain = 0
KMUS 111250Z 16002KT 19/17 A3017 RMK A01 T01870165  RH  091%=      5-min Rain = 0
KMUS 111255Z 16003KT 19/17 A3017 RMK A01 T01890166  RH  091%=      5-min Rain = 0
KMUS 111300Z 16003KT 19/17 A3017 RMK A01 T01920168  RH  091%=      5-min Rain = 0
KMUS 111305Z 17002KT 19/17 A3017 RMK A01 T01940169  RH  090%=      5-min Rain = 0
KMUS 111310Z 16002KT 20/17 A3017 RMK A01 T01960170  RH  089%=      5-min Rain = 0
KMUS 111315Z 16002KT 20/17 A3017 RMK A01 T01990172  RH  089%=      5-min Rain = 0
KMUS 111320Z 17002KT 20/17 A3017 RMK A01 T02010173  RH  088%=      5-min Rain = 0
KMUS 111325Z 16002KT 20/17 A3017 RMK A01 T02040172  RH  087%=      5-min Rain = 0
KMUS 111330Z 16004KT 21/17 A3017 RMK A01 T02070173  RH  085%=      5-min Rain = 0
KMUS 111335Z 17005KT 21/17 A3017 RMK A01 T02120168  RH  080%=      5-min Rain = 0
KMUS 111340Z 18004KT 22/17 A3017 RMK A01 T02170166  RH  076%=      5-min Rain = 0
KMUS 111345Z 18005KT 22/16 A3017 RMK A01 T02190164  RH  074%=      5-min Rain = 0
KMUS 111350Z 18006KT 22/16 A3017 RMK A01 T02210161  RH  072%=      5-min Rain = 0
KMUS 111355Z 18006KT 22/16 A3018 RMK A01 T02230160  RH  071%=      5-min Rain = 0
KMUS 111400Z 19007KT 22/16 A3018 RMK A01 T02240156  RH  069%=      5-min Rain = 0
KMUS 111405Z 19007KT 23/15 A3018 RMK A01 T02260154  RH  067%=      5-min Rain = 0
KMUS 111410Z 19008KT 23/15 A3018 RMK A01 T02280153  RH  066%=      5-min Rain = 0
KMUS 111415Z 19008KT 23/15 A3018 RMK A01 T02300151  RH  064%=      5-min Rain = 0
KMUS 111420Z 19010KT 23/15 A3018 RMK A01 T02320149  RH  062%=      5-min Rain = 0
KMUS 111425Z 19011KT 23/15 A3018 RMK A01 T02340148  RH  061%=      5-min Rain = 0
KMUS 111430Z 19011KT 24/15 A3018 RMK A01 T02370148  RH  060%=      5-min Rain = 0
KMUS 111435Z 19012KT 24/15 A3018 RMK A01 T02390146  RH  059%=      5-min Rain = 0
KMUS 111440Z 18012KT 24/15 A3018 RMK A01 T02400147  RH  059%=      5-min Rain = 0
KMUS 111445Z 19011KT 24/15 A3018 RMK A01 T02440149  RH  058%=      5-min Rain = 0
KMUS 111450Z 19013KT 24/15 A3018 RMK A01 T02440147  RH  057%=      5-min Rain = 0
KMUS 111455Z 18012KT 25/15 A3017 RMK A01 T02470148  RH  057%=      5-min Rain = 0
KMUS 111500Z 19011KT 25/15 A3017 RMK A01 T02500148  RH  056%=      5-min Rain = 0
KMUS 111505Z 20012KT 25/15 A3017 RMK A01 T02500146  RH  055%=      5-min Rain = 0
KMUS 111510Z 18011KT 25/15 A3017 RMK A01 T02520147  RH  055%=      5-min Rain = 0
KMUS 111515Z 18012KT 26/15 A3017 RMK A01 T02570146  RH  053%=      5-min Rain = 0
KMUS 111520Z 18011KT 26/15 A3017 RMK A01 T02620148  RH  052%=      5-min Rain = 0
KMUS 111525Z 18011KT 26/15 A3017 RMK A01 T02640145  RH  050%=      5-min Rain = 0
KMUS 111530Z 19013KT 26/14 A3017 RMK A01 T02630143  RH  050%=      5-min Rain = 0
KMUS 111535Z 18013KT 26/14 A3017 RMK A01 T02640143  RH  049%=      5-min Rain = 0
KMUS 111540Z 19012KT 26/15 A3017 RMK A01 T02620145  RH  051%=      5-min Rain = 0
KMUS 111545Z 19011G16KT 26/14 A3017 RMK A01 T02600143  RH  051%=      5-min Rain = 0
KMUS 111550Z 18012KT 26/14 A3017 RMK A01 T02560140  RH  051%=      5-min Rain = 0
KMUS 111555Z 19011KT 26/14 A3017 RMK A01 T02560142  RH  051%=      5-min Rain = 0
KMUS 111600Z 19011KT 26/14 A3017 RMK A01 T02570141  RH  051%=      5-min Rain = 0
KMUS 111605Z 19010KT 26/14 A3017 RMK A01 T02570142  RH  051%=      5-min Rain = 0
KMUS 111610Z 18009KT 26/14 A3017 RMK A01 T02590143  RH  051%=      5-min Rain = 0
KMUS 111615Z 18010KT 26/14 A3017 RMK A01 T02600139  RH  050%=      5-min Rain = 0
KMUS 111620Z 18010KT 26/14 A3017 RMK A01 T02620141  RH  049%=      5-min Rain = 0
KMUS 111625Z 18011KT 27/14 A3017 RMK A01 T02660140  RH  048%=      5-min Rain = 0
KMUS 111630Z 19011KT 27/14 A3017 RMK A01 T02700139  RH  046%=      5-min Rain = 0
KMUS 111635Z 18011KT 28/14 A3017 RMK A01 T02750138  RH  045%=      5-min Rain = 0
KMUS 111640Z 18011KT 28/14 A3017 RMK A01 T02790137  RH  043%=      5-min Rain = 0
KMUS 111645Z 19010KT 28/14 A3017 RMK A01 T02820138  RH  043%=      5-min Rain = 0
KMUS 111650Z 19011KT 28/14 A3017 RMK A01 T02830139  RH  043%=      5-min Rain = 0
KMUS 111655Z 17008KT 28/14 A3017 RMK A01 T02840140  RH  043%=      5-min Rain = 0
KMUS 111700Z 18009KT 29/14 A3016 RMK A01 T02870139  RH  042%=      5-min Rain = 0
KMUS 111705Z 17011KT 29/14 A3016 RMK A01 T02890135  RH  040%=      5-min Rain = 0
KMUS 111710Z 19010G17KT 29/14 A3016 RMK A01 T02870137  RH  042%=      5-min Rain = 0
KMUS 111715Z 16011G18KT 29/14 A3016 RMK A01 T02910135  RH  040%=      5-min Rain = 0
KMUS 111720Z 17013G19KT 29/13 A3016 RMK A01 T02940133  RH  039%=      5-min Rain = 0
KMUS 111725Z 17011G16KT 29/13 A3016 RMK A01 T02940129  RH  038%=      5-min Rain = 0
KMUS 111730Z 18012G17KT 29/13 A3016 RMK A01 T02940132  RH  039%=      5-min Rain = 0
KMUS 111735Z 17011KT 29/13 A3016 RMK A01 T02930132  RH  039%=      5-min Rain = 0
KMUS 111740Z 18013G18KT 30/13 A3016 RMK A01 T02960134  RH  039%=      5-min Rain = 0
KMUS 111745Z 18012G18KT 30/13 A3015 RMK A01 T02990132  RH  038%=      5-min Rain = 0
KMUS 111750Z 19014G22KT 30/13 A3015 RMK A01 T02980131  RH  037%=      5-min Rain = 0
KMUS 111755Z 19012G18KT 30/13 A3015 RMK A01 T02990129  RH  037%=      5-min Rain = 0
KMUS 111800Z 16013G20KT 30/13 A3015 RMK A01 T02980128  RH  037%=      5-min Rain = 0
KMUS 111805Z 16013G19KT 30/13 A3015 RMK A01 T03010130  RH  037%=      5-min Rain = 0
KMUS 111810Z 15012G19KT 30/13 A3014 RMK A01 T03020130  RH  036%=      5-min Rain = 0
KMUS 111815Z 18013G21KT 31/13 A3014 RMK A01 T03050131  RH  036%=      5-min Rain = 0
KMUS 111820Z 17012G19KT 30/13 A3014 RMK A01 T03020128  RH  036%=      5-min Rain = 0
KMUS 111825Z 17013G19KT 30/13 A3014 RMK A01 T03020126  RH  035%=      5-min Rain = 0
KMUS 111830Z 16013G21KT 31/13 A3013 RMK A01 T03050131  RH  036%=      5-min Rain = 0
KMUS 111835Z 17012G17KT 31/13 A3013 RMK A01 T03070134  RH  036%=      5-min Rain = 0
KMUS 111840Z 16014KT 31/13 A3013 RMK A01 T03080132  RH  036%=      5-min Rain = 0
KMUS 111845Z 20015G21KT 31/13 A3012 RMK A01 T03110127  RH  034%=      5-min Rain = 0
KMUS 111850Z 18015G22KT 31/13 A3012 RMK A01 T03110128  RH  034%=      5-min Rain = 0
KMUS 111855Z 17012KT 31/13 A3012 RMK A01 T03130128  RH  034%=      5-min Rain = 0
KMUS 111900Z 17013G23KT 31/13 A3012 RMK A01 T03130128  RH  034%=      5-min Rain = 0
KMUS 111905Z 16014G21KT 32/13 A3012 RMK A01 T03160129  RH  033%=      5-min Rain = 0
KMUS 111910Z 17013G20KT 32/13 A3012 RMK A01 T03190129  RH  033%=      5-min Rain = 0
KMUS 111915Z 18016G22KT 31/12 A3012 RMK A01 T03130124  RH  033%=      5-min Rain = 0
KMUS 111920Z 17013G20KT 31/13 A3011 RMK A01 T03130125  RH  033%=      5-min Rain = 0
KMUS 111925Z 16014G21KT 31/13 A3011 RMK A01 T03140130  RH  034%=      5-min Rain = 0
KMUS 111930Z 17014G22KT 32/13 A3011 RMK A01 T03150126  RH  033%=      5-min Rain = 0
KMUS 111935Z 17014G20KT 31/13 A3011 RMK A01 T03080125  RH  034%=      5-min Rain = 0
KMUS 111940Z 18012KT 31/13 A301 RMK A01 T03060126  RH  034%=      5-min Rain = 0
KMUS 111945Z 15014G21KT 31/13 A301 RMK A01 T03120125  RH  033%=      5-min Rain = 0
KMUS 111950Z 18014G21KT 31/13 A301 RMK A01 T03140128  RH  033%=      5-min Rain = 0
KMUS 111955Z 19016G24KT 32/13 A3009 RMK A01 T03210128  RH  032%=      5-min Rain = 0
KMUS 112000Z 18016G23KT 32/13 A3009 RMK A01 T03200127  RH  032%=      5-min Rain = 0
KMUS 112005Z 18015G21KT 32/13 A3009 RMK A01 T03210127  RH  032%=      5-min Rain = 0
KMUS 112010Z 17015G20KT 32/13 A3009 RMK A01 T03220127  RH  032%=      5-min Rain = 0
KMUS 112015Z 18015G22KT 32/13 A3009 RMK A01 T03210126  RH  032%=      5-min Rain = 0
KMUS 112020Z 19014G19KT 32/13 A3009 RMK A01 T03230129  RH  032%=      5-min Rain = 0
KMUS 112025Z 17015G21KT 32/12 A3009 RMK A01 T03230124  RH  031%=      5-min Rain = 0
KMUS 112030Z 15012G19KT 32/12 A3009 RMK A01 T03180124  RH  032%=      5-min Rain = 0
KMUS 112035Z 18015G24KT 31/13 A3008 RMK A01 T03120125  RH  033%=      5-min Rain = 0
KMUS 112040Z 16014G20KT 31/13 A3008 RMK A01 T03120128  RH  034%=      5-min Rain = 0
KMUS 112045Z 17016KT 32/13 A3008 RMK A01 T03170129  RH  033%=      5-min Rain = 0
KMUS 112050Z 18015G23KT 32/13 A3008 RMK A01 T03220128  RH  032%=      5-min Rain = 0
KMUS 112055Z 17012G21KT 32/13 A3007 RMK A01 T03170129  RH  033%=      5-min Rain = 0
KMUS 112100Z 16014G19KT 32/13 A3007 RMK A01 T03160131  RH  034%=      5-min Rain = 0
KMUS 112105Z 16015KT 32/13 A3007 RMK A01 T03210132  RH  033%=      5-min Rain = 0
KMUS 112110Z 16015KT 32/13 A3007 RMK A01 T03210132  RH  033%=      5-min Rain = 0
KMUS 112115Z 16014G19KT 33/13 A3007 RMK A01 T03250132  RH  032%=      5-min Rain = 0
KMUS 112120Z 16015G21KT 32/13 A3007 RMK A01 T03220130  RH  032%=      5-min Rain = 0
KMUS 112125Z 17014G19KT 31/13 A3006 RMK A01 T03130126  RH  033%=      5-min Rain = 0
KMUS 112130Z 17014G19KT 32/13 A3006 RMK A01 T03170127  RH  033%=      5-min Rain = 0
KMUS 112135Z 17014G21KT 32/13 A3006 RMK A01 T03170128  RH  033%=      5-min Rain = 0
KMUS 112140Z 18015G20KT 32/13 A3006 RMK A01 T03180130  RH  033%=      5-min Rain = 0
KMUS 112145Z 16015KT 32/13 A3006 RMK A01 T03230133  RH  033%=      5-min Rain = 0
KMUS 112150Z 15015G20KT 33/13 A3005 RMK A01 T03260131  RH  032%=      5-min Rain = 0
KMUS 112155Z 18016G21KT 32/13 A3005 RMK A01 T03240131  RH  032%=      5-min Rain = 0
KMUS 112200Z 18016G21KT 32/13 A3005 RMK A01 T03220128  RH  032%=      5-min Rain = 0
KMUS 112205Z 17014G20KT 31/13 A3005 RMK A01 T03130126  RH  033%=      5-min Rain = 0
KMUS 112210Z 18014G19KT 31/13 A3005 RMK A01 T03100126  RH  034%=      5-min Rain = 0
KMUS 112215Z 18014G20KT 31/13 A3005 RMK A01 T03130130  RH  034%=      5-min Rain = 0
KMUS 112220Z 17016KT 32/13 A3005 RMK A01 T03210131  RH  033%=      5-min Rain = 0
KMUS 112225Z 17014G19KT 32/13 A3005 RMK A01 T03240132  RH  032%=      5-min Rain = 0
KMUS 112230Z 17016G22KT 33/13 A3004 RMK A01 T03280131  RH  032%=      5-min Rain = 0
KMUS 112235Z 17015G21KT 33/13 A3004 RMK A01 T03250127  RH  031%=      5-min Rain = 0
KMUS 112240Z 17015G21KT 32/13 A3004 RMK A01 T03230127  RH  032%=      5-min Rain = 0
KMUS 112245Z 16014G19KT 32/13 A3004 RMK A01 T03210126  RH  032%=      5-min Rain = 0
KMUS 112250Z 17014G20KT 32/13 A3004 RMK A01 T03180127  RH  032%=      5-min Rain = 0
KMUS 112255Z 17016G22KT 32/13 A3004 RMK A01 T03160126  RH  033%=      5-min Rain = 0
KMUS 112300Z 17013KT 31/13 A3004 RMK A01 T03130125  RH  033%=      5-min Rain = 0
KMUS 112305Z 17014G19KT 31/13 A3004 RMK A01 T03140126  RH  033%=      5-min Rain = 0
KMUS 112310Z 18014G21KT 32/12 A3003 RMK A01 T03210124  RH  031%=      5-min Rain = 0
KMUS 112315Z 18014KT 32/12 A3003 RMK A01 T03240122  RH  030%=      5-min Rain = 0
KMUS 112320Z 18014KT 32/12 A3003 RMK A01 T03230119  RH  030%=      5-min Rain = 0
KMUS 112325Z 17013KT 32/12 A3003 RMK A01 T03210121  RH  030%=      5-min Rain = 0
KMUS 112330Z 18014G19KT 32/12 A3003 RMK A01 T03160121  RH  031%=      5-min Rain = 0
KMUS 112335Z 17014KT 31/12 A3003 RMK A01 T03130120  RH  032%=      5-min Rain = 0
KMUS 112340Z 17013KT 31/12 A3003 RMK A01 T03110121  RH  032%=      5-min Rain = 0
KMUS 112345Z 18010G17KT 31/12 A3003 RMK A01 T03090123  RH  033%=      5-min Rain = 0
KMUS 112350Z 18013KT 31/12 A3003 RMK A01 T03100121  RH  033%=      5-min Rain = 0
KMUS 112355Z 18012G17KT 31/12 A3004 RMK A01 T03100122  RH  033%=      5-min Rain = 0
KMUS 120000Z 17013G18KT 31/12 A3004 RMK A01 T03080123  RH  033%=      5-min Rain = 0
KMUS 120005Z 17013G20KT 31/12 A3004 RMK A01 T03090123  RH  033%=      5-min Rain = 0
KMUS 120010Z 17014KT 31/12 A3005 RMK A01 T03090123  RH  033%=      5-min Rain = 0
KMUS 120015Z 17013KT 31/13 A3005 RMK A01 T03080128  RH  034%=      5-min Rain = 0
KMUS 120020Z 17011KT 31/13 A3005 RMK A01 T03060129  RH  035%=      5-min Rain = 0
KMUS 120025Z 17014G20KT 31/12 A3005 RMK A01 T03060124  RH  034%=      5-min Rain = 0
KMUS 120030Z 18014KT 31/13 A3005 RMK A01 T03060125  RH  034%=      5-min Rain = 0
KMUS 120035Z 17015KT 31/12 A3005 RMK A01 T03070124  RH  034%=      5-min Rain = 0
KMUS 120040Z 18015KT 31/13 A3005 RMK A01 T03070126  RH  034%=      5-min Rain = 0
KMUS 120045Z 17012KT 31/13 A3005 RMK A01 T03060128  RH  035%=      5-min Rain = 0
KMUS 120050Z 17011G16KT 31/13 A3005 RMK A01 T03060130  RH  036%=      5-min Rain = 0
KMUS 120055Z 17012KT 31/13 A3005 RMK A01 T03050129  RH  036%=      5-min Rain = 0
KMUS 120100Z 17010KT 30/13 A3005 RMK A01 T03030131  RH  036%=      5-min Rain = 0
KMUS 120105Z 16011G17KT 30/13 A3005 RMK A01 T03000131  RH  037%=      5-min Rain = 0
KMUS 120110Z 17013KT 30/13 A3006 RMK A01 T02980130  RH  037%=      5-min Rain = 0
KMUS 120115Z 17011KT 30/13 A3006 RMK A01 T02980130  RH  037%=      5-min Rain = 0
KMUS 120120Z 16009G14KT 30/13 A3006 RMK A01 T02960132  RH  038%=      5-min Rain = 0
KMUS 120125Z 16010KT 30/13 A3006 RMK A01 T02960131  RH  038%=      5-min Rain = 0
KMUS 120130Z 17010KT 30/13 A3006 RMK A01 T02950132  RH  038%=      5-min Rain = 0
KMUS 120135Z 17009KT 29/13 A3006 RMK A01 T02930133  RH  039%=      5-min Rain = 0
KMUS 120140Z 17008KT 29/13 A3006 RMK A01 T02910134  RH  040%=      5-min Rain = 0
KMUS 120145Z 17009KT 29/13 A3006 RMK A01 T02900134  RH  040%=      5-min Rain = 0
KMUS 120150Z 17009KT 29/14 A3006 RMK A01 T02890135  RH  040%=      5-min Rain = 0
KMUS 120155Z 17010KT 29/14 A3007 RMK A01 T02890135  RH  040%=      5-min Rain = 0
KMUS 120200Z 18009KT 29/14 A3007 RMK A01 T02890135  RH  040%=      5-min Rain = 0
KMUS 120205Z 18010KT 29/14 A3007 RMK A01 T02870136  RH  041%=      5-min Rain = 0
KMUS 120210Z 18012KT 29/14 A3007 RMK A01 T02860136  RH  041%=      5-min Rain = 0
KMUS 120215Z 18011KT 28/14 A3007 RMK A01 T02840135  RH  042%=      5-min Rain = 0
KMUS 120220Z 18009KT 28/14 A3007 RMK A01 T02810136  RH  043%=      5-min Rain = 0
KMUS 120225Z 19008KT 28/14 A3008 RMK A01 T02780138  RH  044%=      5-min Rain = 0
KMUS 120230Z 19007KT 28/14 A3008 RMK A01 T02750140  RH  045%=      5-min Rain = 0
KMUS 120235Z 19006KT 27/14 A3008 RMK A01 T02720142  RH  047%=      5-min Rain = 0
KMUS 120240Z 19006KT 27/14 A3009 RMK A01 T02700143  RH  048%=      5-min Rain = 0
KMUS 120245Z 19005KT 27/14 A3009 RMK A01 T02690144  RH  048%=      5-min Rain = 0
KMUS 120250Z 18007G13KT 27/15 A3009 RMK A01 T02670145  RH  049%=      5-min Rain = 0
KMUS 120255Z 17009KT 27/14 A3009 RMK A01 T02680144  RH  048%=      5-min Rain = 0
KMUS 120300Z 16009KT 27/15 A3009 RMK A01 T02660145  RH  050%=      5-min Rain = 0
KMUS 120305Z 15009G14KT 26/15 A3009 RMK A01 T02640146  RH  050%=      5-min Rain = 0
KMUS 120310Z 15011KT 26/14 A3009 RMK A01 T02610144  RH  050%=      5-min Rain = 0
KMUS 120315Z 14011KT 26/15 A301 RMK A01 T02610145  RH  051%=      5-min Rain = 0
KMUS 120320Z 15014KT 26/15 A301 RMK A01 T02610146  RH  051%=      5-min Rain = 0
KMUS 120325Z 15018G23KT 26/14 A3011 RMK A01 T02620144  RH  050%=      5-min Rain = 0
KMUS 120330Z 16018KT 26/15 A3011 RMK A01 T02600149  RH  053%=      5-min Rain = 0
KMUS 120335Z 17017G22KT 26/15 A3012 RMK A01 T02580153  RH  055%=      5-min Rain = 0
KMUS 120340Z 18021G29KT 24/17 A3012 RMK A01 T02410167  RH  067%=      5-min Rain = 0.04
KMUS 120345Z 16022G29KT 21/17 A3013 RMK A01 T02140172  RH  081%=      5-min Rain = 0.15
KMUS 120350Z 15013KT 20/17 A3014 RMK A01 T02040174  RH  087%=      5-min Rain = 0.14
KMUS 120355Z 14012KT 20/18 A3014 RMK A01 T02010176  RH  090%=      5-min Rain = 0.06
KMUS 120400Z 14014G19KT 20/18 A3014 RMK A01 T02030177  RH  090%=      5-min Rain = 0
KMUS 120405Z 15014KT 21/18 A3015 RMK A01 T02050178  RH  089%=      5-min Rain = 0
KMUS 120410Z 15014G19KT 20/18 A3016 RMK A01 T02030177  RH  090%=      5-min Rain = 0
KMUS 120415Z 14014KT 20/18 A3016 RMK A01 T01990175  RH  090%=      5-min Rain = 0.01
KMUS 120420Z 16014G21KT 20/17 A3016 RMK A01 T01990174  RH  090%=      5-min Rain = 0
KMUS 120425Z 17012KT 20/17 A3016 RMK A01 T02000171  RH  087%=      5-min Rain = 0
KMUS 120430Z 17011KT 20/17 A3016 RMK A01 T01980167  RH  086%=      5-min Rain = 0
KMUS 120435Z 18011KT 20/17 A3016 RMK A01 T01970168  RH  088%=      5-min Rain = 0.01
KMUS 120440Z 21009KT 20/17 A3016 RMK A01 T01960169  RH  089%=      5-min Rain = 0.01
KMUS 120445Z 19010KT 20/17 A3016 RMK A01 T01960169  RH  089%=      5-min Rain = 0
KMUS 120450Z 18010KT 20/17 A3016 RMK A01 T02000168  RH  086%=      5-min Rain = 0
KMUS 120455Z 18010KT 20/17 A3017 RMK A01 T02010169  RH  086%=      5-min Rain = 0.01
KMUS 120500Z 18012KT 20/17 A3017 RMK A01 T02000166  RH  084%=      5-min Rain = 0

Page generated in 0.0218 seconds.